createdAt,value
2022-10-21T00:01:10.107Z,1.60
2022-10-21T00:03:38.601Z,8.77
2022-10-21T00:06:07.834Z,3.70
2022-10-21T00:08:36.605Z,2.13
2022-10-21T00:11:06.616Z,1.97
2022-10-21T00:13:36.769Z,2.20
2022-10-21T00:16:09.112Z,2.33
2022-10-21T00:18:38.744Z,3.20
2022-10-21T00:21:08.986Z,1.93
2022-10-21T00:23:37.331Z,2.90
2022-10-21T00:26:06.002Z,3.33
2022-10-21T00:28:34.305Z,7.03
2022-10-21T00:31:02.634Z,4.50
2022-10-21T00:33:32.258Z,3.43
2022-10-21T00:36:02.823Z,4.40
2022-10-21T00:38:31.580Z,2.43
2022-10-21T00:41:00.177Z,2.93
2022-10-21T00:43:29.642Z,2.60
2022-10-21T00:46:00.879Z,5.63
2022-10-21T00:48:35.906Z,3.43
2022-10-21T00:51:07.596Z,4.23
2022-10-21T00:53:38.088Z,3.93
2022-10-21T00:56:15.497Z,4.60
2022-10-21T00:58:46.629Z,2.20
2022-10-21T01:01:18.056Z,2.17
2022-10-21T01:03:50.753Z,4.60
2022-10-21T01:06:21.771Z,4.97
2022-10-21T01:08:50.670Z,1.93
2022-10-21T01:11:22.744Z,4.00
2022-10-21T01:14:09.511Z,3.40
2022-10-21T01:16:48.257Z,2.07
2022-10-21T01:19:38.803Z,3.30
2022-10-21T01:22:17.163Z,2.17
2022-10-21T01:25:00.668Z,1.80
2022-10-21T01:27:40.779Z,2.03
2022-10-21T01:30:15.502Z,3.60
2022-10-21T01:35:47.295Z,3.87
2022-10-21T01:38:23.474Z,3.47
2022-10-21T01:40:57.650Z,4.93
2022-10-21T01:43:36.660Z,4.23
2022-10-21T01:46:09.100Z,4.30
2022-10-21T01:48:43.143Z,2.67
2022-10-21T01:51:12.817Z,5.73
2022-10-21T01:53:44.805Z,2.50
2022-10-21T01:56:14.291Z,4.77
2022-10-21T01:58:45.481Z,3.73
2022-10-21T02:01:15.546Z,3.57
2022-10-21T02:03:49.214Z,3.33
2022-10-21T02:06:18.202Z,7.53
2022-10-21T02:08:46.715Z,4.00
2022-10-21T02:11:18.216Z,4.50
2022-10-21T02:13:53.775Z,3.40
2022-10-21T02:16:26.372Z,1.77
2022-10-21T02:18:56.348Z,2.40
2022-10-21T02:21:28.237Z,5.17
2022-10-21T02:24:00.318Z,3.20
2022-10-21T02:26:29.863Z,8.80
2022-10-21T02:29:00.028Z,2.53
2022-10-21T02:31:40.701Z,2.77
2022-10-21T02:34:21.532Z,2.40
2022-10-21T02:36:57.336Z,2.47
2022-10-21T02:39:29.497Z,2.27
2022-10-21T02:41:59.336Z,2.50
2022-10-21T02:44:27.726Z,2.97
2022-10-21T02:46:55.991Z,2.47
2022-10-21T02:49:25.623Z,3.70
2022-10-21T02:51:54.548Z,2.37
2022-10-21T02:54:23.012Z,2.93
2022-10-21T02:56:51.215Z,5.17
2022-10-21T02:59:19.491Z,4.03
2022-10-21T03:01:53.883Z,2.80
2022-10-21T03:04:22.257Z,5.33
2022-10-21T03:06:51.978Z,2.40
2022-10-21T03:09:20.216Z,3.10
2022-10-21T03:11:48.431Z,3.20
2022-10-21T03:14:16.704Z,2.47
2022-10-21T03:16:44.919Z,3.93
2022-10-21T03:19:13.270Z,4.17
2022-10-21T03:21:41.547Z,3.50
2022-10-21T03:24:15.558Z,3.73
2022-10-21T03:26:56.002Z,5.03
2022-10-21T03:29:24.552Z,5.73
2022-10-21T03:31:52.836Z,3.80
2022-10-21T03:34:21.076Z,2.27
2022-10-21T03:36:49.437Z,4.70
2022-10-21T03:39:19.040Z,3.00
2022-10-21T03:41:47.320Z,3.27
2022-10-21T03:44:15.562Z,4.15
2022-10-21T03:46:43.841Z,2.17
2022-10-21T03:49:21.172Z,2.93
2022-10-21T03:51:50.424Z,3.67
2022-10-21T03:54:20.454Z,2.53
2022-10-21T03:56:48.713Z,3.60
2022-10-21T03:59:17.003Z,6.60
2022-10-21T04:01:45.309Z,4.30
2022-10-21T04:04:13.600Z,3.60
2022-10-21T04:06:41.837Z,4.00
2022-10-21T04:09:10.943Z,5.73
2022-10-21T04:11:42.279Z,2.47
2022-10-21T04:14:13.097Z,4.17
2022-10-21T04:16:43.752Z,3.20
2022-10-21T04:19:18.112Z,4.50
2022-10-21T04:21:47.065Z,3.70
2022-10-21T04:24:15.681Z,5.07
2022-10-21T04:26:45.681Z,2.80
2022-10-21T04:29:13.998Z,4.53
2022-10-21T04:31:42.353Z,3.33
2022-10-21T04:34:10.641Z,4.32
2022-10-21T04:36:38.900Z,4.20
2022-10-21T04:39:07.266Z,5.70
2022-10-21T04:41:35.558Z,5.37
2022-10-21T04:44:06.404Z,2.83
2022-10-21T04:46:34.603Z,5.50
2022-10-21T04:49:02.868Z,5.67
2022-10-21T04:54:00.335Z,3.57
2022-10-21T04:56:28.711Z,3.17
2022-10-21T04:58:57.077Z,5.47
2022-10-21T05:01:26.746Z,4.73
2022-10-21T05:03:54.999Z,3.57
2022-10-21T05:06:23.352Z,4.07
2022-10-21T05:08:51.730Z,6.87
2022-10-21T05:11:20.009Z,3.43
2022-10-21T05:13:48.250Z,7.37
2022-10-21T05:16:16.472Z,5.43
2022-10-21T05:18:46.113Z,2.97
2022-10-21T05:21:14.352Z,5.70
2022-10-21T05:23:43.137Z,4.07
2022-10-21T05:26:11.378Z,6.43
2022-10-21T05:28:39.586Z,5.93
2022-10-21T05:31:07.924Z,6.23
2022-10-21T05:33:36.372Z,5.23
2022-10-21T05:36:08.698Z,5.83
2022-10-21T05:38:37.262Z,3.10
2022-10-21T05:41:05.654Z,7.00
2022-10-21T05:43:33.956Z,8.10
2022-10-21T05:46:02.221Z,7.10
2022-10-21T05:48:30.896Z,8.40
2022-10-21T05:50:59.097Z,4.03
2022-10-21T05:53:28.789Z,7.40
2022-10-21T05:55:58.015Z,5.70
2022-10-21T05:58:27.551Z,6.90
2022-10-21T06:00:56.494Z,7.33
2022-10-21T06:03:25.519Z,5.73
2022-10-21T06:05:53.829Z,7.83
2022-10-21T06:08:22.034Z,6.73
2022-10-21T06:10:51.736Z,6.40
2022-10-21T06:13:20.295Z,6.10
2022-10-21T06:16:12.662Z,9.10
2022-10-21T06:18:41.612Z,3.87
2022-10-21T06:21:10.960Z,5.20
2022-10-21T06:23:39.479Z,9.03
2022-10-21T06:26:11.804Z,4.33
2022-10-21T06:28:41.895Z,5.43
2022-10-21T06:31:13.647Z,5.10
2022-10-21T06:33:41.981Z,4.70
2022-10-21T06:36:10.320Z,4.33
2022-10-21T06:38:38.623Z,5.17
2022-10-21T06:41:13.030Z,5.87
2022-10-21T06:43:42.320Z,8.15
2022-10-21T06:46:12.483Z,7.17
2022-10-21T06:48:40.839Z,5.03
2022-10-21T06:51:11.147Z,4.80
2022-10-21T06:53:39.761Z,5.93
2022-10-21T06:56:12.485Z,8.33
2022-10-21T06:58:43.400Z,6.10
2022-10-21T07:01:27.388Z,9.73
2022-10-21T07:04:01.613Z,7.97
2022-10-21T07:06:30.054Z,5.80
2022-10-21T07:08:59.201Z,5.53
2022-10-21T07:11:29.452Z,4.87
2022-10-21T07:13:57.794Z,5.27
2022-10-21T07:16:27.385Z,5.90
2022-10-21T07:18:56.143Z,5.20
2022-10-21T07:21:27.051Z,8.47
2022-10-21T07:23:59.201Z,5.90
2022-10-21T07:26:31.136Z,6.80
2022-10-21T07:29:01.060Z,6.63
2022-10-21T07:31:32.209Z,6.07
2022-10-21T07:34:00.965Z,6.53
2022-10-21T07:36:31.235Z,4.93
2022-10-21T07:39:02.660Z,4.93
2022-10-21T07:41:34.722Z,5.03
2022-10-21T07:44:03.453Z,4.30
2022-10-21T07:46:31.679Z,6.93
2022-10-21T07:49:00.025Z,4.07
2022-10-21T07:51:30.245Z,4.97
2022-10-21T07:54:01.260Z,3.43
2022-10-21T07:56:33.075Z,9.87
2022-10-21T07:59:01.712Z,8.57
2022-10-21T08:01:30.538Z,5.73
2022-10-21T08:03:59.662Z,8.50
2022-10-21T08:06:28.974Z,4.23
2022-10-21T08:08:58.322Z,7.93
2022-10-21T08:11:28.571Z,6.57
2022-10-21T08:13:58.830Z,10.23
2022-10-21T08:16:28.129Z,5.67
2022-10-21T08:19:05.925Z,5.53
2022-10-21T08:21:34.339Z,6.20
2022-10-21T08:24:04.366Z,7.93
2022-10-21T08:26:32.694Z,7.67
2022-10-21T08:29:03.991Z,4.77
2022-10-21T08:31:32.609Z,6.43
2022-10-21T08:34:01.079Z,7.10
2022-10-21T08:36:29.296Z,9.40
2022-10-21T08:38:58.795Z,5.43
2022-10-21T08:42:00.128Z,5.93
2022-10-21T08:44:35.358Z,9.00
2022-10-21T08:47:15.196Z,4.37
2022-10-21T08:50:01.302Z,4.07
2022-10-21T08:52:54.793Z,6.33
2022-10-21T08:55:26.876Z,7.80
2022-10-21T08:57:55.841Z,4.63
2022-10-21T09:00:28.475Z,7.93
2022-10-21T09:03:15.547Z,4.40
2022-10-21T09:05:59.359Z,5.00
2022-10-21T09:08:34.185Z,6.53
2022-10-21T09:11:06.146Z,9.53
2022-10-21T09:13:50.471Z,4.60
2022-10-21T09:16:25.015Z,5.23
2022-10-21T09:19:02.444Z,6.47
2022-10-21T09:21:40.524Z,6.17
2022-10-21T09:24:12.662Z,6.20
2022-10-21T09:26:42.652Z,6.67
2022-10-21T09:29:30.511Z,4.67
2022-10-21T09:32:11.838Z,4.00
2022-10-21T09:34:49.005Z,4.23
2022-10-21T09:37:30.417Z,6.13
2022-10-21T09:40:11.756Z,7.27
2022-10-21T09:42:47.559Z,6.67
2022-10-21T09:45:23.772Z,7.43
2022-10-21T09:47:58.903Z,6.05
2022-10-21T09:50:29.105Z,5.60
2022-10-21T09:53:05.738Z,4.53
2022-10-21T09:55:34.582Z,5.53
2022-10-21T09:58:04.311Z,5.70
2022-10-21T10:00:50.067Z,6.05
2022-10-21T10:03:34.394Z,5.13
2022-10-21T10:06:03.773Z,4.37
2022-10-21T10:08:35.805Z,3.97
2022-10-21T10:11:12.351Z,6.10
2022-10-21T10:13:42.873Z,6.07
2022-10-21T10:16:24.017Z,5.03
2022-10-21T10:19:10.977Z,3.90
2022-10-21T10:21:39.294Z,6.10
2022-10-21T10:24:07.574Z,3.23
2022-10-21T10:26:38.419Z,5.23
2022-10-21T10:29:25.091Z,5.63
2022-10-21T10:31:57.522Z,4.80
2022-10-21T10:34:32.763Z,8.40
2022-10-21T10:37:04.316Z,4.83
2022-10-21T10:39:36.078Z,4.10
2022-10-21T10:42:04.817Z,4.17
2022-10-21T10:44:38.471Z,6.63
2022-10-21T10:47:09.310Z,5.03
2022-10-21T10:49:43.848Z,5.90
2022-10-21T10:52:24.187Z,6.03
2022-10-21T10:55:19.422Z,6.60
2022-10-21T10:58:06.228Z,4.67
2022-10-21T11:00:46.275Z,3.03
2022-10-21T11:03:23.896Z,3.63
2022-10-21T11:06:02.532Z,3.33
2022-10-21T11:08:34.541Z,3.90
2022-10-21T11:11:05.341Z,5.53
2022-10-21T11:13:36.916Z,3.53
2022-10-21T11:16:17.995Z,3.65
2022-10-21T11:18:53.697Z,4.57
2022-10-21T11:21:40.262Z,6.57
2022-10-21T11:24:29.570Z,6.63
2022-10-21T11:27:02.278Z,4.67
2022-10-21T11:29:40.831Z,7.87
2022-10-21T11:32:21.744Z,5.13
2022-10-21T11:34:58.471Z,4.17
2022-10-21T11:37:44.249Z,5.97
2022-10-21T11:40:23.714Z,7.77
2022-10-21T11:42:54.074Z,3.47
2022-10-21T11:45:50.596Z,3.77
2022-10-21T11:48:37.804Z,5.00
2022-10-21T11:51:16.518Z,6.57
2022-10-21T11:53:56.625Z,4.03
2022-10-21T11:56:30.965Z,3.67
2022-10-21T11:59:10.260Z,6.93
2022-10-21T12:01:47.283Z,4.10
2022-10-21T12:04:34.443Z,3.70
2022-10-21T12:07:35.520Z,4.40
2022-10-21T12:10:11.802Z,3.93
2022-10-21T12:12:46.297Z,4.23
2022-10-21T12:15:19.890Z,4.70
2022-10-21T12:17:50.550Z,8.37
2022-10-21T12:20:23.934Z,5.13
2022-10-21T12:22:59.542Z,5.30
2022-10-21T12:25:38.085Z,4.33
2022-10-21T12:28:12.534Z,8.90
2022-10-21T12:30:45.841Z,5.10
2022-10-21T12:33:19.129Z,2.70
2022-10-21T12:35:53.276Z,3.80
2022-10-21T12:38:25.083Z,4.27
2022-10-21T12:41:29.180Z,4.70
2022-10-21T12:44:03.963Z,6.67
2022-10-21T12:46:39.884Z,9.27
2022-10-21T12:49:21.603Z,5.57
2022-10-21T12:51:52.846Z,3.97
2022-10-21T12:54:26.647Z,5.73
2022-10-21T12:57:04.891Z,5.73
2022-10-21T12:59:36.198Z,4.23
2022-10-21T13:02:20.202Z,7.17
2022-10-21T13:04:51.401Z,6.20
2022-10-21T13:07:37.442Z,5.90
2022-10-21T13:10:29.449Z,5.77
2022-10-21T13:13:39.182Z,4.50
2022-10-21T13:16:37.043Z,5.63
2022-10-21T13:19:27.273Z,6.60
2022-10-21T13:22:03.537Z,3.63
2022-10-21T13:24:34.726Z,6.47
2022-10-21T13:27:05.258Z,3.77
2022-10-21T13:29:46.186Z,8.20
2022-10-21T13:32:34.343Z,6.00
2022-10-21T13:35:29.539Z,5.00
2022-10-21T13:38:02.209Z,6.97
2022-10-21T13:40:39.606Z,4.70
2022-10-21T13:43:14.770Z,4.83
2022-10-21T13:45:49.431Z,3.07
2022-10-21T13:48:20.984Z,3.30
2022-10-21T13:50:51.388Z,5.13
2022-10-21T13:53:29.893Z,3.67
2022-10-21T13:56:01.458Z,4.70
2022-10-21T13:58:31.552Z,4.87
2022-10-21T14:01:09.064Z,2.87
2022-10-21T14:03:38.959Z,3.60
2022-10-21T14:06:09.657Z,5.97
2022-10-21T14:08:42.391Z,6.93
2022-10-21T14:11:16.636Z,5.90
2022-10-21T14:13:45.244Z,11.17
2022-10-21T14:16:21.639Z,20.33
2022-10-21T14:18:52.177Z,8.93
2022-10-21T14:21:23.408Z,10.33
2022-10-21T14:23:52.074Z,9.33
2022-10-21T14:26:20.857Z,12.70
2022-10-21T14:28:50.330Z,10.03
2022-10-21T14:31:20.382Z,5.33
2022-10-21T14:33:50.552Z,4.57
2022-10-21T14:36:20.907Z,5.90
2022-10-21T14:39:00.476Z,4.17
2022-10-21T14:41:35.566Z,4.37
2022-10-21T14:44:10.351Z,9.03
2022-10-21T14:46:43.964Z,10.10
2022-10-21T14:49:31.964Z,6.43
2022-10-21T14:52:02.842Z,4.97
2022-10-21T14:54:40.219Z,8.90
2022-10-21T14:57:34.196Z,5.17
2022-10-21T15:00:03.812Z,9.80
2022-10-21T15:02:36.921Z,8.03
2022-10-21T15:05:35.175Z,6.30
2022-10-21T15:08:30.672Z,8.53
2022-10-21T15:11:23.734Z,12.00
2022-10-21T15:14:07.021Z,9.83
2022-10-21T15:19:11.179Z,12.10
2022-10-21T15:21:48.368Z,9.20
2022-10-21T15:24:21.609Z,6.80
2022-10-21T15:26:53.024Z,6.77
2022-10-21T15:29:28.046Z,8.10
2022-10-21T15:31:58.861Z,6.90
2022-10-21T15:34:27.455Z,8.93
2022-10-21T15:36:57.219Z,6.77
2022-10-21T15:39:27.627Z,6.70
2022-10-21T15:41:57.943Z,7.17
2022-10-21T15:44:29.427Z,13.40
2022-10-21T15:47:00.867Z,10.33
2022-10-21T15:49:33.629Z,15.47
2022-10-21T15:52:03.587Z,12.80
2022-10-21T15:54:32.099Z,10.83
2022-10-21T15:57:01.903Z,10.07
2022-10-21T15:59:32.530Z,10.30
2022-10-21T16:02:17.070Z,17.60
2022-10-21T16:04:46.338Z,16.80
2022-10-21T16:07:22.560Z,18.50
2022-10-21T16:09:50.906Z,12.47
2022-10-21T16:12:22.439Z,11.67
2022-10-21T16:14:50.733Z,13.80
2022-10-21T16:17:19.404Z,15.93
2022-10-21T16:19:47.638Z,15.77
2022-10-21T16:22:19.693Z,17.27
2022-10-21T16:24:49.373Z,13.13
2022-10-21T16:27:30.912Z,17.47
2022-10-21T16:30:19.162Z,11.23
2022-10-21T16:32:47.816Z,13.70
2022-10-21T16:35:17.423Z,10.07
2022-10-21T16:37:46.053Z,20.80
2022-10-21T16:40:24.292Z,18.03
2022-10-21T16:42:53.271Z,16.37
2022-10-21T16:45:23.516Z,17.53
2022-10-21T16:47:56.662Z,15.07
2022-10-21T16:50:30.808Z,12.57
2022-10-21T16:52:59.120Z,13.47
2022-10-21T16:55:28.982Z,15.80
2022-10-21T16:57:57.278Z,14.60
2022-10-21T17:00:25.556Z,12.63
2022-10-21T17:02:53.914Z,19.67
2022-10-21T17:05:22.339Z,21.20
2022-10-21T17:07:50.610Z,19.33
2022-10-21T17:10:19.005Z,14.00
2022-10-21T17:12:48.693Z,19.00
2022-10-21T17:15:17.561Z,21.57
2022-10-21T17:17:45.810Z,26.13
2022-10-21T17:20:13.997Z,24.77
2022-10-21T17:22:42.228Z,25.53
2022-10-21T17:25:12.853Z,22.50
2022-10-21T17:27:41.486Z,24.20
2022-10-21T17:30:13.354Z,24.73
2022-10-21T17:35:18.418Z,28.47
2022-10-21T17:37:47.495Z,18.03
2022-10-21T17:40:18.051Z,18.57
2022-10-21T17:42:46.409Z,23.50
2022-10-21T17:45:18.143Z,21.70
2022-10-21T17:47:46.776Z,24.57
2022-10-21T17:50:18.527Z,16.13
2022-10-21T17:52:46.769Z,20.03
2022-10-21T17:55:14.974Z,17.17
2022-10-21T17:57:43.247Z,20.90
2022-10-21T18:00:12.571Z,16.70
2022-10-21T18:02:45.502Z,24.07
2022-10-21T18:05:13.794Z,23.87
2022-10-21T18:07:42.236Z,20.67
2022-10-21T18:10:11.550Z,25.83
2022-10-21T18:12:40.044Z,27.38
2022-10-21T18:15:09.172Z,24.87
2022-10-21T18:17:40.060Z,22.60
2022-10-21T18:20:11.306Z,18.77
2022-10-21T18:22:39.857Z,24.00
2022-10-21T18:25:09.134Z,19.23
2022-10-21T18:27:40.387Z,23.07
2022-10-21T18:30:09.779Z,23.03
2022-10-21T18:32:39.103Z,28.13
2022-10-21T18:35:11.766Z,29.07
2022-10-21T18:37:40.106Z,26.25
2022-10-21T18:40:10.190Z,24.73
2022-10-21T18:42:39.676Z,30.93
2022-10-21T18:45:08.650Z,19.47
2022-10-21T18:47:39.488Z,26.50
2022-10-21T18:50:11.020Z,21.10
2022-10-21T18:52:39.440Z,19.10
2022-10-21T18:55:08.215Z,21.90
2022-10-21T18:57:36.542Z,22.67
2022-10-21T19:00:06.669Z,20.20
2022-10-21T19:02:35.328Z,24.60
2022-10-21T19:05:03.561Z,19.73
2022-10-21T19:07:33.240Z,26.77
2022-10-21T19:10:01.482Z,21.00
2022-10-21T19:12:29.729Z,19.30
2022-10-21T19:14:58.147Z,26.30
2022-10-21T19:17:28.688Z,21.23
2022-10-21T19:19:56.956Z,17.20
2022-10-21T19:22:26.187Z,19.90
2022-10-21T19:24:55.960Z,23.17
2022-10-21T19:27:24.450Z,18.43
2022-10-21T19:29:52.763Z,22.88
2022-10-21T19:32:21.023Z,24.83
2022-10-21T19:34:50.854Z,22.23
2022-10-21T19:37:19.070Z,23.57
2022-10-21T19:39:47.338Z,20.33
2022-10-21T19:42:17.045Z,25.77
2022-10-21T19:44:45.289Z,26.20
2022-10-21T19:47:13.484Z,21.57
2022-10-21T19:49:41.847Z,29.67
2022-10-21T19:52:10.119Z,26.53
2022-10-21T19:54:38.355Z,27.38
2022-10-21T19:57:06.627Z,28.83
2022-10-21T19:59:36.268Z,28.43
2022-10-21T20:02:04.560Z,31.10
2022-10-21T20:04:35.325Z,35.93
2022-10-21T20:07:04.379Z,45.50
2022-10-21T20:09:35.010Z,49.27
2022-10-21T20:12:06.277Z,54.17
2022-10-21T20:14:35.934Z,58.27
2022-10-21T20:17:04.323Z,59.37
2022-10-21T20:19:32.584Z,64.43
2022-10-21T20:22:00.866Z,64.97
2022-10-21T20:24:29.100Z,63.30
2022-10-21T20:26:59.839Z,62.83
2022-10-21T20:29:30.433Z,50.53
2022-10-21T20:32:00.337Z,53.70
2022-10-21T20:34:29.598Z,60.27
2022-10-21T20:36:59.909Z,61.40
2022-10-21T20:39:28.236Z,53.60
2022-10-21T20:41:56.581Z,54.87
2022-10-21T20:44:24.789Z,53.40
2022-10-21T20:46:53.074Z,52.63
2022-10-21T20:49:22.712Z,55.87
2022-10-21T20:51:50.984Z,53.33
2022-10-21T20:54:22.766Z,59.63
2022-10-21T20:56:51.037Z,47.57
2022-10-21T20:59:19.263Z,47.57
2022-10-21T21:01:48.713Z,50.73
2022-10-21T21:04:20.811Z,52.73
2022-10-21T21:06:51.163Z,47.90
2022-10-21T21:09:43.753Z,54.57
2022-10-21T21:12:10.037Z,48.93
2022-10-21T21:14:38.306Z,48.27
2022-10-21T21:17:06.897Z,52.93
2022-10-21T21:19:35.169Z,48.30
2022-10-21T21:22:05.095Z,41.77
2022-10-21T21:24:33.707Z,45.77
2022-10-21T21:27:02.087Z,45.23
2022-10-21T21:29:33.107Z,44.73
2022-10-21T21:32:01.385Z,42.83
2022-10-21T21:34:29.621Z,45.77
2022-10-21T21:36:57.897Z,42.47
2022-10-21T21:39:28.852Z,46.78
2022-10-21T21:41:57.305Z,45.43
2022-10-21T21:44:25.546Z,40.13
2022-10-21T21:46:53.750Z,37.23
2022-10-21T21:49:21.969Z,38.73
2022-10-21T21:51:50.270Z,42.50
2022-10-21T21:54:18.542Z,28.83
2022-10-21T21:56:48.214Z,27.30
2022-10-21T21:59:16.553Z,25.90
2022-10-21T22:01:44.875Z,25.97
2022-10-21T22:04:13.094Z,25.67
2022-10-21T22:06:41.361Z,25.50
2022-10-21T22:09:11.765Z,24.33
2022-10-21T22:11:40.564Z,22.70
2022-10-21T22:14:13.031Z,22.27
2022-10-21T22:16:41.429Z,23.93
2022-10-21T22:19:11.938Z,19.23
2022-10-21T22:21:40.221Z,24.57
2022-10-21T22:24:08.480Z,25.50
2022-10-21T22:26:39.794Z,20.67
2022-10-21T22:29:09.485Z,20.93
2022-10-21T22:31:37.712Z,24.00
2022-10-21T22:34:09.245Z,24.23
2022-10-21T22:36:40.086Z,19.67
2022-10-21T22:39:08.520Z,21.60
2022-10-21T22:41:36.875Z,26.57
2022-10-21T22:44:05.606Z,27.77
2022-10-21T22:46:36.400Z,26.53
2022-10-21T22:49:05.420Z,26.03
2022-10-21T22:51:34.129Z,29.07
2022-10-21T22:54:02.483Z,18.53
2022-10-21T22:56:32.751Z,23.43
2022-10-21T22:59:01.034Z,19.43
2022-10-21T23:01:30.758Z,20.73
2022-10-21T23:04:07.585Z,19.27
2022-10-21T23:06:36.815Z,31.33
2022-10-21T23:09:06.653Z,23.37
2022-10-21T23:11:34.907Z,25.67
2022-10-21T23:14:08.035Z,28.87
2022-10-21T23:16:37.753Z,26.53
2022-10-21T23:19:08.331Z,23.63
2022-10-21T23:21:37.408Z,25.37
2022-10-21T23:24:07.018Z,31.17
2022-10-21T23:26:35.713Z,23.50
2022-10-21T23:29:04.022Z,26.97
2022-10-21T23:31:32.283Z,23.13
2022-10-21T23:34:00.552Z,23.33
2022-10-21T23:36:30.353Z,19.97
2022-10-21T23:38:58.619Z,23.20
2022-10-21T23:41:26.928Z,26.90
2022-10-21T23:43:55.180Z,29.53
2022-10-21T23:46:23.589Z,22.57
2022-10-21T23:48:51.865Z,26.17
2022-10-21T23:51:21.331Z,28.13
2022-10-21T23:53:50.977Z,25.87
2022-10-21T23:56:19.203Z,25.20
2022-10-21T23:58:47.525Z,26.07
